createdAt,value
2022-10-19T00:01:10.952Z,59.54
2022-10-19T00:03:38.078Z,58.92
2022-10-19T00:06:14.302Z,60.00
2022-10-19T00:08:42.440Z,59.55
2022-10-19T00:11:10.039Z,59.41
2022-10-19T00:13:45.790Z,60.34
2022-10-19T00:16:15.838Z,60.19
2022-10-19T00:18:43.937Z,60.06
2022-10-19T00:21:13.683Z,60.46
2022-10-19T00:23:41.304Z,60.55
2022-10-19T00:26:08.297Z,60.74
2022-10-19T00:28:35.964Z,61.10
2022-10-19T00:31:08.270Z,61.55
2022-10-19T00:33:35.334Z,61.02
2022-10-19T00:36:02.650Z,60.57
2022-10-19T00:38:29.699Z,60.85
2022-10-19T00:40:56.585Z,60.55
2022-10-19T00:43:26.400Z,61.30
2022-10-19T00:45:53.577Z,61.11
2022-10-19T00:48:28.384Z,60.86
2022-10-19T00:50:56.965Z,61.02
2022-10-19T00:53:26.874Z,60.95
2022-10-19T00:55:54.844Z,61.00
2022-10-19T00:58:21.807Z,61.28
2022-10-19T01:00:48.925Z,60.42
2022-10-19T01:03:16.070Z,60.82
2022-10-19T01:05:43.401Z,60.78
2022-10-19T01:08:11.551Z,60.57
2022-10-19T01:11:12.295Z,60.00
2022-10-19T01:13:57.058Z,60.32
2022-10-19T01:16:49.988Z,60.49
2022-10-19T01:19:33.827Z,60.82
2022-10-19T01:22:20.406Z,60.48
2022-10-19T01:25:05.596Z,60.56
2022-10-19T01:27:53.298Z,60.27
2022-10-19T01:30:37.984Z,60.04
2022-10-19T01:33:07.547Z,60.22
2022-10-19T01:35:43.390Z,60.09
2022-10-19T01:38:26.726Z,60.07
2022-10-19T01:41:17.743Z,60.00
2022-10-19T01:43:53.796Z,59.79
2022-10-19T01:46:38.041Z,59.41
2022-10-19T01:49:19.241Z,59.72
2022-10-19T01:51:53.101Z,59.55
2022-10-19T01:54:23.299Z,59.61
2022-10-19T01:56:52.400Z,59.86
2022-10-19T01:59:21.418Z,59.94
2022-10-19T02:01:51.121Z,59.70
2022-10-19T02:04:21.348Z,60.13
2022-10-19T02:06:50.540Z,59.95
2022-10-19T02:09:17.781Z,60.63
2022-10-19T02:11:57.282Z,60.13
2022-10-19T02:14:30.801Z,60.33
2022-10-19T02:17:10.044Z,60.42
2022-10-19T02:19:38.416Z,59.79
2022-10-19T02:22:06.184Z,60.53
2022-10-19T02:24:33.014Z,60.58
2022-10-19T02:27:00.530Z,60.51
2022-10-19T02:29:28.447Z,60.33
2022-10-19T02:31:55.321Z,60.22
2022-10-19T02:34:22.389Z,60.19
2022-10-19T02:36:49.574Z,60.33
2022-10-19T02:39:16.819Z,60.87
2022-10-19T02:41:59.788Z,60.17
2022-10-19T02:44:34.849Z,60.42
2022-10-19T02:47:23.799Z,60.02
2022-10-19T02:49:51.719Z,60.06
2022-10-19T02:52:18.561Z,60.23
2022-10-19T02:54:45.600Z,60.35
2022-10-19T02:57:38.243Z,60.74
2022-10-19T03:00:06.898Z,60.77
2022-10-19T03:02:33.747Z,61.26
2022-10-19T03:05:00.574Z,61.65
2022-10-19T03:07:27.469Z,60.40
2022-10-19T03:10:00.393Z,60.79
2022-10-19T03:12:27.246Z,60.26
2022-10-19T03:14:54.039Z,60.70
2022-10-19T03:17:21.202Z,60.35
2022-10-19T03:19:48.141Z,60.24
2022-10-19T03:22:15.273Z,59.63
2022-10-19T03:24:42.132Z,59.40
2022-10-19T03:27:09.283Z,59.13
2022-10-19T03:29:42.193Z,58.47
2022-10-19T03:32:09.263Z,58.81
2022-10-19T03:34:36.124Z,58.48
2022-10-19T03:37:03.025Z,58.59
2022-10-19T03:39:29.899Z,58.61
2022-10-19T03:41:56.715Z,58.64
2022-10-19T03:44:23.481Z,58.03
2022-10-19T03:46:50.404Z,58.34
2022-10-19T03:49:17.242Z,58.33
2022-10-19T03:51:44.108Z,57.93
2022-10-19T03:54:16.262Z,57.87
2022-10-19T03:56:43.737Z,58.27
2022-10-19T03:59:14.682Z,57.89
2022-10-19T04:01:44.436Z,58.21
2022-10-19T04:04:15.649Z,57.76
2022-10-19T04:06:44.645Z,57.52
2022-10-19T04:09:19.365Z,57.30
2022-10-19T04:11:46.813Z,57.57
2022-10-19T04:14:22.865Z,57.39
2022-10-19T04:16:59.206Z,57.04
2022-10-19T04:19:26.034Z,56.84
2022-10-19T04:21:52.929Z,56.61
2022-10-19T04:24:19.845Z,56.08
2022-10-19T04:26:56.750Z,56.69
2022-10-19T04:29:29.413Z,56.89
2022-10-19T04:31:57.888Z,56.95
2022-10-19T04:34:24.781Z,56.95
2022-10-19T04:36:53.402Z,57.02
2022-10-19T04:39:20.235Z,57.43
2022-10-19T04:41:58.759Z,59.69
2022-10-19T04:44:25.612Z,58.31
2022-10-19T04:46:52.431Z,59.28
2022-10-19T04:49:20.290Z,60.56
2022-10-19T04:51:47.172Z,60.14
2022-10-19T04:54:14.148Z,59.55
2022-10-19T04:56:41.255Z,60.23
2022-10-19T04:59:09.986Z,59.43
2022-10-19T05:01:36.924Z,60.07
2022-10-19T05:04:05.045Z,59.71
2022-10-19T05:06:32.193Z,59.23
2022-10-19T05:08:59.957Z,59.21
2022-10-19T05:11:27.768Z,59.04
2022-10-19T05:13:55.647Z,58.62
2022-10-19T05:16:23.954Z,58.94
2022-10-19T05:19:20.618Z,58.75
2022-10-19T05:21:47.470Z,59.18
2022-10-19T05:24:14.384Z,59.35
2022-10-19T05:26:43.736Z,58.84
2022-10-19T05:29:31.951Z,58.37
2022-10-19T05:31:58.899Z,58.83
2022-10-19T05:34:25.735Z,57.66
2022-10-19T05:36:55.465Z,58.19
2022-10-19T05:39:22.759Z,57.79
2022-10-19T05:41:49.879Z,57.37
2022-10-19T05:44:19.333Z,56.81
2022-10-19T05:46:50.316Z,57.42
2022-10-19T05:49:19.658Z,57.59
2022-10-19T05:51:46.609Z,57.54
2022-10-19T05:54:14.562Z,57.48
2022-10-19T05:56:42.344Z,56.10
2022-10-19T05:59:13.888Z,56.69
2022-10-19T06:01:40.836Z,56.79
2022-10-19T06:04:07.841Z,56.66
2022-10-19T06:06:34.787Z,55.42
2022-10-19T06:09:01.717Z,55.49
2022-10-19T06:11:31.038Z,55.46
2022-10-19T06:13:59.663Z,54.73
2022-10-19T06:16:28.052Z,55.36
2022-10-19T06:18:56.530Z,54.55
2022-10-19T06:21:28.081Z,54.41
2022-10-19T06:24:02.887Z,54.47
2022-10-19T06:26:31.612Z,54.33
2022-10-19T06:29:00.694Z,54.64
2022-10-19T06:31:29.527Z,54.70
2022-10-19T06:33:56.478Z,54.61
2022-10-19T06:36:26.015Z,54.82
2022-10-19T06:38:53.096Z,53.97
2022-10-19T06:41:20.659Z,53.84
2022-10-19T06:43:55.361Z,53.65
2022-10-19T06:46:26.827Z,53.05
2022-10-19T06:49:02.068Z,52.97
2022-10-19T06:51:31.214Z,52.56
2022-10-19T06:53:58.041Z,53.62
2022-10-19T06:56:28.015Z,53.19
2022-10-19T06:58:59.157Z,52.57
2022-10-19T07:01:40.500Z,52.71
2022-10-19T07:04:08.129Z,52.80
2022-10-19T07:06:35.890Z,52.39
2022-10-19T07:09:05.669Z,51.96
2022-10-19T07:11:32.790Z,51.83
2022-10-19T07:13:59.642Z,52.06
2022-10-19T07:16:26.467Z,51.22
2022-10-19T07:18:53.792Z,51.01
2022-10-19T07:21:26.760Z,51.18
2022-10-19T07:23:54.452Z,50.62
2022-10-19T07:26:24.944Z,50.39
2022-10-19T07:28:58.011Z,50.71
2022-10-19T07:31:32.784Z,50.00
2022-10-19T07:34:09.469Z,50.44
2022-10-19T07:36:59.743Z,50.54
2022-10-19T07:39:26.961Z,50.09
2022-10-19T07:41:54.352Z,49.85
2022-10-19T07:44:24.474Z,50.21
2022-10-19T07:46:52.249Z,49.59
2022-10-19T07:49:25.559Z,48.88
2022-10-19T07:52:01.716Z,49.54
2022-10-19T07:54:29.617Z,48.36
2022-10-19T07:56:58.824Z,47.70
2022-10-19T07:59:26.126Z,46.77
2022-10-19T08:01:53.203Z,47.24
2022-10-19T08:07:07.200Z,46.94
2022-10-19T08:09:52.180Z,47.03
2022-10-19T08:12:20.651Z,47.35
2022-10-19T08:14:47.421Z,47.53
2022-10-19T08:17:40.133Z,47.30
2022-10-19T08:20:08.350Z,46.54
2022-10-19T08:22:35.487Z,46.53
2022-10-19T08:25:03.005Z,47.01
2022-10-19T08:27:29.804Z,46.49
2022-10-19T08:29:56.726Z,45.98
2022-10-19T08:32:23.930Z,45.89
2022-10-19T08:34:50.952Z,46.85
2022-10-19T08:37:32.578Z,46.83
2022-10-19T08:40:06.376Z,45.76
2022-10-19T08:43:13.238Z,46.54
2022-10-19T08:46:24.731Z,45.90
2022-10-19T08:48:53.018Z,45.63
2022-10-19T08:51:22.950Z,45.82
2022-10-19T08:54:00.706Z,45.82
2022-10-19T08:57:00.902Z,45.61
2022-10-19T09:00:06.716Z,46.12
2022-10-19T09:02:53.612Z,45.69
2022-10-19T09:05:52.921Z,45.88
2022-10-19T09:08:21.185Z,45.60
2022-10-19T09:10:53.592Z,46.09
2022-10-19T09:16:20.533Z,47.29
2022-10-19T09:18:57.602Z,46.59
2022-10-19T09:21:47.118Z,46.11
2022-10-19T09:24:36.875Z,46.62
2022-10-19T09:27:18.962Z,46.45
2022-10-19T09:29:56.461Z,46.90
2022-10-19T09:32:31.407Z,46.49
2022-10-19T09:35:20.834Z,47.54
2022-10-19T09:37:50.428Z,47.49
2022-10-19T09:40:24.333Z,48.22
2022-10-19T09:42:51.342Z,47.90
2022-10-19T09:45:23.916Z,48.50
2022-10-19T09:47:50.778Z,49.06
2022-10-19T09:50:23.298Z,49.68
2022-10-19T09:52:56.808Z,50.63
2022-10-19T09:56:00.441Z,49.61
2022-10-19T09:58:32.880Z,49.47
2022-10-19T10:01:02.130Z,50.25
2022-10-19T10:03:31.003Z,50.44
2022-10-19T10:06:02.817Z,50.80
2022-10-19T10:08:33.419Z,51.38
2022-10-19T10:11:10.431Z,52.03
2022-10-19T10:13:43.729Z,52.36
2022-10-19T10:16:15.501Z,52.84
2022-10-19T10:18:55.841Z,53.09
2022-10-19T10:21:26.299Z,52.85
2022-10-19T10:24:00.443Z,52.76
2022-10-19T10:26:28.531Z,53.46
2022-10-19T10:29:26.490Z,53.81
2022-10-19T10:31:58.940Z,53.83
2022-10-19T10:34:49.879Z,54.53
2022-10-19T10:37:20.747Z,55.71
2022-10-19T10:39:56.689Z,55.53
2022-10-19T10:42:34.968Z,55.63
2022-10-19T10:45:03.791Z,56.08
2022-10-19T10:47:31.431Z,56.11
2022-10-19T10:50:27.047Z,56.51
2022-10-19T10:53:02.221Z,57.60
2022-10-19T10:55:38.361Z,58.14
2022-10-19T10:58:16.456Z,58.17
2022-10-19T11:00:45.474Z,58.12
2022-10-19T11:03:22.010Z,58.51
2022-10-19T11:05:56.425Z,59.37
2022-10-19T11:08:46.100Z,59.48
2022-10-19T11:11:26.913Z,59.99
2022-10-19T11:13:59.387Z,59.65
2022-10-19T11:16:35.817Z,58.69
2022-10-19T11:19:20.270Z,58.84
2022-10-19T11:22:27.083Z,58.28
2022-10-19T11:25:38.899Z,58.11
2022-10-19T11:28:24.147Z,57.63
2022-10-19T11:30:57.373Z,57.60
2022-10-19T11:33:38.580Z,58.33
2022-10-19T11:36:32.064Z,57.53
2022-10-19T11:39:18.441Z,58.27
2022-10-19T11:41:59.665Z,57.63
2022-10-19T11:44:35.580Z,57.97
2022-10-19T11:50:54.149Z,58.04
2022-10-19T11:54:01.742Z,58.86
2022-10-19T11:57:01.574Z,59.12
2022-10-19T12:00:13.909Z,59.17
2022-10-19T12:03:06.140Z,59.27
2022-10-19T12:05:51.579Z,59.37
2022-10-19T12:08:40.822Z,59.61
2022-10-19T12:11:10.638Z,60.38
2022-10-19T12:13:47.708Z,60.46
2022-10-19T12:16:17.345Z,61.00
2022-10-19T12:18:50.266Z,61.35
2022-10-19T12:21:41.963Z,61.49
2022-10-19T12:24:18.123Z,62.49
2022-10-19T12:26:46.087Z,61.31
2022-10-19T12:29:19.487Z,61.62
2022-10-19T12:31:47.618Z,61.96
2022-10-19T12:34:32.800Z,62.33
2022-10-19T12:37:43.964Z,63.02
2022-10-19T12:40:25.360Z,62.41
2022-10-19T12:43:23.609Z,63.44
2022-10-19T12:46:10.673Z,63.45
2022-10-19T12:48:37.584Z,63.23
2022-10-19T12:51:10.379Z,63.09
2022-10-19T12:53:46.915Z,62.94
2022-10-19T12:56:26.294Z,63.03
2022-10-19T12:59:01.332Z,62.85
2022-10-19T13:01:34.058Z,62.98
2022-10-19T13:04:09.601Z,63.60
2022-10-19T13:06:43.974Z,63.14
2022-10-19T13:09:24.539Z,63.52
2022-10-19T13:12:19.615Z,63.30
2022-10-19T13:14:58.903Z,62.85
2022-10-19T13:17:53.584Z,63.98
2022-10-19T13:20:20.471Z,62.74
2022-10-19T13:23:07.528Z,62.62
2022-10-19T13:25:38.790Z,62.90
2022-10-19T13:28:08.818Z,62.48
2022-10-19T13:30:35.562Z,62.95
2022-10-19T13:33:27.386Z,63.27
2022-10-19T13:36:00.519Z,62.69
2022-10-19T13:41:18.675Z,62.51
2022-10-19T13:44:08.750Z,62.28
2022-10-19T13:47:01.256Z,62.64
2022-10-19T13:50:01.558Z,62.91
2022-10-19T13:53:06.980Z,63.05
2022-10-19T13:55:52.511Z,63.52
2022-10-19T13:58:19.425Z,63.09
2022-10-19T14:01:12.005Z,63.79
2022-10-19T14:04:15.375Z,63.80
2022-10-19T14:06:57.110Z,63.90
2022-10-19T14:09:57.641Z,63.67
2022-10-19T14:12:28.146Z,64.18
2022-10-19T14:14:55.166Z,63.90
2022-10-19T14:17:27.739Z,64.28
2022-10-19T14:20:01.989Z,63.96
2022-10-19T14:22:31.909Z,64.01
2022-10-19T14:25:17.068Z,64.50
2022-10-19T14:27:47.804Z,64.63
2022-10-19T14:30:44.410Z,64.58
2022-10-19T14:33:16.900Z,65.47
2022-10-19T14:35:50.120Z,65.83
2022-10-19T14:38:30.037Z,65.32
2022-10-19T14:40:57.543Z,66.11
2022-10-19T14:43:53.297Z,66.21
2022-10-19T14:46:31.972Z,66.22
2022-10-19T14:49:04.809Z,67.08
2022-10-19T14:51:58.808Z,67.76
2022-10-19T14:54:34.443Z,68.24
2022-10-19T14:57:29.152Z,68.60
2022-10-19T15:00:01.649Z,69.29
2022-10-19T15:02:42.440Z,69.27
2022-10-19T15:05:20.440Z,68.63
2022-10-19T15:07:48.302Z,68.59
2022-10-19T15:10:23.540Z,68.02
2022-10-19T15:12:52.927Z,68.13
2022-10-19T15:15:27.830Z,67.51
2022-10-19T15:17:56.305Z,66.74
2022-10-19T15:20:30.366Z,66.76
2022-10-19T15:22:58.467Z,66.70
2022-10-19T15:25:36.776Z,67.41
2022-10-19T15:28:37.546Z,67.10
2022-10-19T15:31:15.448Z,66.52
2022-10-19T15:33:55.045Z,67.24
2022-10-19T15:36:23.490Z,67.13
2022-10-19T15:39:17.718Z,66.75
2022-10-19T15:41:52.079Z,66.81
2022-10-19T15:44:43.008Z,67.06
2022-10-19T15:47:20.423Z,66.68
2022-10-19T15:49:56.317Z,67.15
2022-10-19T15:52:28.934Z,68.10
2022-10-19T15:54:58.499Z,67.23
2022-10-19T15:57:34.085Z,67.18
2022-10-19T16:00:17.173Z,66.70
2022-10-19T16:02:44.551Z,66.14
2022-10-19T16:05:12.461Z,66.19
2022-10-19T16:07:42.317Z,66.36
2022-10-19T16:10:17.003Z,66.24
2022-10-19T16:12:44.077Z,66.46
2022-10-19T16:15:16.048Z,66.02
2022-10-19T16:18:07.214Z,66.50
2022-10-19T16:20:34.288Z,67.06
2022-10-19T16:23:01.101Z,66.37
2022-10-19T16:25:28.144Z,65.74
2022-10-19T16:27:55.008Z,66.35
2022-10-19T16:30:22.367Z,66.99
2022-10-19T16:32:49.568Z,67.31
2022-10-19T16:35:42.212Z,67.29
2022-10-19T16:38:09.198Z,67.43
2022-10-19T16:40:36.186Z,66.95
2022-10-19T16:43:05.566Z,66.85
2022-10-19T16:45:32.823Z,67.67
2022-10-19T16:47:59.689Z,67.03
2022-10-19T16:50:26.573Z,67.46
2022-10-19T16:53:14.239Z,67.09
2022-10-19T16:55:41.456Z,66.96
2022-10-19T16:58:08.421Z,66.97
2022-10-19T17:00:36.003Z,67.12
2022-10-19T17:03:03.129Z,68.03
2022-10-19T17:05:29.947Z,68.08
2022-10-19T17:07:56.930Z,68.39
2022-10-19T17:10:24.663Z,68.94
2022-10-19T17:12:51.525Z,69.72
2022-10-19T17:15:41.449Z,69.25
2022-10-19T17:18:05.656Z,68.90
2022-10-19T17:20:33.604Z,69.35
2022-10-19T17:23:01.004Z,69.16
2022-10-19T17:25:27.993Z,68.80
2022-10-19T17:27:58.107Z,69.64
2022-10-19T17:30:24.929Z,69.40
2022-10-19T17:32:51.761Z,68.96
2022-10-19T17:35:19.014Z,69.42
2022-10-19T17:37:45.851Z,70.15
2022-10-19T17:40:16.812Z,70.32
2022-10-19T17:42:48.176Z,70.22
2022-10-19T17:45:14.988Z,69.74
2022-10-19T17:47:41.904Z,70.07
2022-10-19T17:50:09.312Z,70.56
2022-10-19T17:52:36.174Z,70.77
2022-10-19T17:55:18.508Z,71.39
2022-10-19T17:57:45.593Z,70.47
2022-10-19T18:00:13.254Z,71.27
2022-10-19T18:02:40.389Z,69.79
2022-10-19T18:05:07.865Z,70.10
2022-10-19T18:07:35.192Z,70.83
2022-10-19T18:10:02.278Z,69.73
2022-10-19T18:12:29.296Z,69.29
2022-10-19T18:14:56.121Z,69.88
2022-10-19T18:17:26.896Z,70.14
2022-10-19T18:19:54.800Z,69.98
2022-10-19T18:22:21.574Z,69.91
2022-10-19T18:24:48.480Z,69.72
2022-10-19T18:27:15.629Z,70.24
2022-10-19T18:29:42.502Z,70.01
2022-10-19T18:32:11.257Z,70.37
2022-10-19T18:34:38.723Z,70.45
2022-10-19T18:37:05.540Z,70.21
2022-10-19T18:39:33.148Z,70.05
2022-10-19T18:42:00.155Z,69.83
2022-10-19T18:44:45.754Z,69.83
2022-10-19T18:47:12.673Z,69.54
2022-10-19T18:49:39.495Z,69.89
2022-10-19T18:52:06.691Z,69.48
2022-10-19T18:54:33.838Z,69.25
2022-10-19T18:57:00.780Z,69.10
2022-10-19T19:01:59.534Z,69.69
2022-10-19T19:04:26.571Z,68.53
2022-10-19T19:06:53.546Z,68.31
2022-10-19T19:09:20.595Z,68.79
2022-10-19T19:11:48.033Z,68.44
2022-10-19T19:14:17.859Z,68.30
2022-10-19T19:16:45.553Z,68.63
2022-10-19T19:19:14.540Z,68.74
2022-10-19T19:21:42.443Z,67.90
2022-10-19T19:24:16.496Z,68.36
2022-10-19T19:26:46.779Z,68.41
2022-10-19T19:29:14.104Z,68.78
2022-10-19T19:31:40.996Z,68.39
2022-10-19T19:34:07.979Z,68.16
2022-10-19T19:36:36.049Z,68.44
2022-10-19T19:39:04.492Z,68.92
2022-10-19T19:41:31.560Z,68.71
2022-10-19T19:44:17.647Z,69.22
2022-10-19T19:46:44.735Z,68.42
2022-10-19T19:49:11.907Z,68.53
2022-10-19T19:51:39.036Z,68.53
2022-10-19T19:54:06.155Z,68.04
2022-10-19T19:56:33.224Z,67.99
2022-10-19T19:59:01.431Z,67.41
2022-10-19T20:01:30.679Z,67.01
2022-10-19T20:03:59.105Z,67.16
2022-10-19T20:06:26.961Z,66.75
2022-10-19T20:08:55.322Z,67.20
2022-10-19T20:11:24.125Z,66.63
2022-10-19T20:13:51.013Z,66.63
2022-10-19T20:16:22.751Z,65.83
2022-10-19T20:18:55.864Z,65.75
2022-10-19T20:21:22.670Z,65.38
2022-10-19T20:23:51.229Z,64.95
2022-10-19T20:26:23.043Z,64.69
2022-10-19T20:28:50.678Z,64.74
2022-10-19T20:31:18.555Z,64.71
2022-10-19T20:33:46.585Z,64.69
2022-10-19T20:36:17.238Z,64.62
2022-10-19T20:38:56.366Z,64.92
2022-10-19T20:41:25.901Z,64.97
2022-10-19T20:43:54.122Z,64.83
2022-10-19T20:46:24.221Z,65.01
2022-10-19T20:48:52.237Z,64.91
2022-10-19T20:51:23.044Z,65.17
2022-10-19T20:53:52.861Z,64.77
2022-10-19T20:56:55.364Z,65.09
2022-10-19T20:59:23.539Z,64.95
2022-10-19T21:01:52.242Z,64.83
2022-10-19T21:04:19.846Z,64.29
2022-10-19T21:06:49.221Z,64.76
2022-10-19T21:09:18.619Z,64.36
2022-10-19T21:11:46.342Z,65.03
2022-10-19T21:14:16.091Z,64.99
2022-10-19T21:16:43.120Z,65.03
2022-10-19T21:19:23.584Z,65.80
2022-10-19T21:21:56.961Z,65.62
2022-10-19T21:24:26.851Z,65.96
2022-10-19T21:26:54.082Z,65.61
2022-10-19T21:29:37.673Z,65.20
2022-10-19T21:32:04.574Z,66.42
2022-10-19T21:34:32.121Z,66.07
2022-10-19T21:36:59.756Z,67.09
2022-10-19T21:39:26.617Z,66.70
2022-10-19T21:41:53.515Z,67.55
2022-10-19T21:44:20.719Z,66.92
2022-10-19T21:46:48.049Z,66.91
2022-10-19T21:49:15.122Z,68.88
2022-10-19T21:51:49.095Z,66.93
2022-10-19T21:54:19.200Z,66.12
2022-10-19T21:56:47.487Z,66.51
2022-10-19T21:59:15.334Z,66.20
2022-10-19T22:01:42.284Z,66.07
2022-10-19T22:04:13.248Z,66.69
2022-10-19T22:06:40.972Z,66.08
2022-10-19T22:09:09.831Z,65.98
2022-10-19T22:11:36.921Z,65.88
2022-10-19T22:14:04.831Z,65.58
2022-10-19T22:16:33.457Z,65.56
2022-10-19T22:19:00.279Z,65.51
2022-10-19T22:21:30.043Z,66.00
2022-10-19T22:24:10.472Z,65.69
2022-10-19T22:26:40.584Z,65.47
2022-10-19T22:29:08.461Z,65.64
2022-10-19T22:31:36.907Z,65.88
2022-10-19T22:34:07.337Z,65.87
2022-10-19T22:36:43.658Z,65.82
2022-10-19T22:39:11.062Z,66.22
2022-10-19T22:42:03.965Z,66.60
2022-10-19T22:44:31.170Z,67.18
2022-10-19T22:46:58.740Z,66.79
2022-10-19T22:49:25.611Z,67.19
2022-10-19T22:51:52.436Z,67.44
2022-10-19T22:54:19.420Z,67.95
2022-10-19T22:56:46.227Z,67.27
2022-10-19T22:59:13.170Z,67.48
2022-10-19T23:02:03.641Z,68.06
2022-10-19T23:04:30.713Z,67.60
2022-10-19T23:06:57.529Z,68.06
2022-10-19T23:09:24.443Z,68.29
2022-10-19T23:11:51.252Z,68.45
2022-10-19T23:14:18.172Z,68.33
2022-10-19T23:16:45.013Z,69.82
2022-10-19T23:19:11.961Z,70.39
2022-10-19T23:21:38.849Z,69.19
2022-10-19T23:24:05.906Z,68.48
2022-10-19T23:26:32.743Z,68.65
2022-10-19T23:28:59.647Z,69.12
2022-10-19T23:31:27.348Z,68.35
2022-10-19T23:33:54.867Z,68.45
2022-10-19T23:36:24.476Z,68.33
2022-10-19T23:38:52.280Z,68.77
2022-10-19T23:41:20.164Z,68.59
2022-10-19T23:43:47.072Z,69.13
2022-10-19T23:46:14.793Z,69.18
2022-10-19T23:48:41.773Z,68.32
2022-10-19T23:51:12.282Z,68.88
2022-10-19T23:53:41.513Z,68.76
2022-10-19T23:56:15.901Z,68.58
2022-10-19T23:58:43.085Z,67.73
